createdAt,value
2023-05-13T00:01:19.862Z,3.30
2023-05-13T00:03:48.520Z,3.13
2023-05-13T00:06:16.997Z,3.72
2023-05-13T00:08:45.887Z,3.13
2023-05-13T00:11:14.666Z,3.08
2023-05-13T00:13:43.457Z,2.75
2023-05-13T00:16:11.639Z,2.90
2023-05-13T00:18:40.824Z,2.70
2023-05-13T00:21:09.667Z,2.90
2023-05-13T00:23:38.089Z,2.47
2023-05-13T00:26:06.641Z,2.95
2023-05-13T00:28:35.149Z,3.22
2023-05-13T00:31:04.184Z,3.08
2023-05-13T00:33:33.535Z,3.22
2023-05-13T00:36:02.408Z,3.10
2023-05-13T00:38:30.962Z,2.80
2023-05-13T00:40:59.495Z,2.78
2023-05-13T00:43:28.118Z,3.35
2023-05-13T00:45:57.115Z,3.53
2023-05-13T00:48:27.752Z,2.72
2023-05-13T00:50:56.858Z,2.42
2023-05-13T00:53:25.786Z,2.83
2023-05-13T00:55:54.261Z,2.60
2023-05-13T00:58:22.783Z,2.72
2023-05-13T01:01:06.682Z,2.55
2023-05-13T01:04:05.115Z,2.40
2023-05-13T01:06:51.297Z,2.60
2023-05-13T01:09:55.516Z,2.60
2023-05-13T01:12:44.226Z,2.40
2023-05-13T01:15:25.793Z,2.97
2023-05-13T01:18:19.160Z,2.80
2023-05-13T01:20:47.530Z,3.03
2023-05-13T01:23:16.150Z,2.42
2023-05-13T01:25:45.377Z,2.10
2023-05-13T01:28:14.356Z,2.33
2023-05-13T01:30:45.903Z,2.10
2023-05-13T01:33:17.194Z,2.30
2023-05-13T01:35:47.728Z,1.88
2023-05-13T01:38:20.530Z,2.60
2023-05-13T01:40:52.457Z,2.40
2023-05-13T01:43:21.157Z,4.68
2023-05-13T01:45:49.854Z,3.15
2023-05-13T01:48:19.154Z,4.65
2023-05-13T01:50:50.655Z,3.00
2023-05-13T01:53:19.813Z,3.53
2023-05-13T01:55:48.844Z,4.13
2023-05-13T01:58:16.991Z,4.43
2023-05-13T02:00:46.188Z,3.60
2023-05-13T02:03:15.035Z,3.22
2023-05-13T02:05:43.690Z,3.70
2023-05-13T02:08:12.977Z,3.13
2023-05-13T02:10:41.157Z,2.10
2023-05-13T02:13:09.620Z,2.22
2023-05-13T02:15:38.701Z,2.15
2023-05-13T02:18:07.953Z,2.25
2023-05-13T02:20:57.651Z,1.80
2023-05-13T02:23:27.013Z,2.22
2023-05-13T02:25:57.004Z,2.42
2023-05-13T02:28:25.420Z,2.40
2023-05-13T02:30:53.904Z,2.50
2023-05-13T02:33:22.489Z,3.13
2023-05-13T02:35:51.726Z,2.63
2023-05-13T02:38:19.832Z,3.03
2023-05-13T02:40:48.311Z,2.63
2023-05-13T02:43:17.145Z,2.17
2023-05-13T02:45:53.764Z,1.60
2023-05-13T02:48:23.696Z,1.85
2023-05-13T02:50:52.885Z,2.97
2023-05-13T02:53:22.457Z,2.85
2023-05-13T02:55:55.166Z,3.40
2023-05-13T02:58:27.630Z,3.10
2023-05-13T03:00:58.037Z,3.58
2023-05-13T03:03:26.947Z,2.83
2023-05-13T03:05:55.609Z,2.00
2023-05-13T03:08:23.524Z,2.28
2023-05-13T03:10:51.983Z,2.75
2023-05-13T03:13:21.031Z,2.15
2023-05-13T03:15:49.671Z,2.95
2023-05-13T03:18:18.368Z,1.80
2023-05-13T03:20:47.590Z,3.00
2023-05-13T03:23:16.386Z,3.63
2023-05-13T03:25:46.629Z,3.25
2023-05-13T03:28:15.558Z,3.63
2023-05-13T03:30:45.406Z,2.83
2023-05-13T03:33:20.762Z,3.00
2023-05-13T03:35:50.012Z,3.50
2023-05-13T03:38:22.461Z,3.50
2023-05-13T03:40:52.512Z,3.08
2023-05-13T03:43:20.915Z,2.90
2023-05-13T03:45:55.865Z,2.15
2023-05-13T03:48:25.922Z,2.22
2023-05-13T03:50:56.833Z,1.80
2023-05-13T03:53:25.792Z,1.88
2023-05-13T03:55:56.202Z,1.88
2023-05-13T03:58:24.773Z,2.20
2023-05-13T04:00:53.105Z,2.42
2023-05-13T04:03:22.050Z,1.83
2023-05-13T04:05:52.214Z,2.58
2023-05-13T04:08:20.355Z,3.42
2023-05-13T04:10:49.283Z,3.72
2023-05-13T04:13:17.458Z,3.65
2023-05-13T04:15:45.656Z,3.33
2023-05-13T04:18:14.226Z,3.10
2023-05-13T04:20:42.586Z,3.20
2023-05-13T04:23:11.136Z,3.17
2023-05-13T04:25:39.934Z,2.85
2023-05-13T04:28:08.606Z,2.47
2023-05-13T04:30:41.544Z,2.28
2023-05-13T04:33:10.240Z,2.10
2023-05-13T04:35:40.776Z,2.10
2023-05-13T04:38:10.026Z,2.33
2023-05-13T04:40:38.574Z,2.17
2023-05-13T04:43:11.747Z,1.90
2023-05-13T04:46:00.251Z,2.70
2023-05-13T04:48:28.784Z,2.08
2023-05-13T04:50:58.829Z,2.15
2023-05-13T04:53:28.891Z,2.17
2023-05-13T04:56:01.419Z,2.20
2023-05-13T04:58:32.094Z,2.00
2023-05-13T05:01:00.194Z,1.70
2023-05-13T05:03:30.223Z,2.08
2023-05-13T05:05:59.520Z,1.85
2023-05-13T05:08:28.950Z,2.20
2023-05-13T05:11:00.170Z,2.50
2023-05-13T05:13:28.208Z,2.40
2023-05-13T05:15:56.957Z,2.72
2023-05-13T05:18:25.619Z,2.50
2023-05-13T05:20:53.855Z,2.22
2023-05-13T05:23:23.298Z,2.53
2023-05-13T05:26:03.990Z,2.33
2023-05-13T05:28:40.286Z,2.30
2023-05-13T05:31:10.610Z,2.53
2023-05-13T05:33:41.681Z,1.70
2023-05-13T05:36:10.419Z,1.98
2023-05-13T05:38:38.941Z,1.60
2023-05-13T05:41:08.847Z,1.75
2023-05-13T05:43:37.595Z,2.58
2023-05-13T05:46:06.382Z,1.88
2023-05-13T05:48:35.083Z,1.90
2023-05-13T05:51:05.266Z,2.10
2023-05-13T05:53:37.978Z,2.70
2023-05-13T05:56:09.032Z,2.13
2023-05-13T05:58:37.898Z,2.33
2023-05-13T06:01:07.706Z,2.13
2023-05-13T06:03:35.967Z,2.90
2023-05-13T06:06:04.878Z,2.72
2023-05-13T06:08:33.583Z,2.80
2023-05-13T06:11:02.966Z,2.50
2023-05-13T06:13:31.603Z,2.90
2023-05-13T06:16:00.494Z,3.47
2023-05-13T06:18:28.650Z,3.15
2023-05-13T06:20:56.705Z,5.20
2023-05-13T06:23:25.787Z,3.70
2023-05-13T06:25:55.242Z,3.10
2023-05-13T06:28:23.780Z,3.03
2023-05-13T06:30:53.908Z,2.95
2023-05-13T06:33:22.275Z,3.03
2023-05-13T06:35:51.054Z,2.90
2023-05-13T06:38:22.540Z,2.67
2023-05-13T06:40:54.665Z,2.40
2023-05-13T06:43:30.848Z,2.65
2023-05-13T06:46:01.201Z,2.80
2023-05-13T06:48:30.462Z,3.05
2023-05-13T06:50:59.018Z,3.22
2023-05-13T06:53:27.998Z,4.07
2023-05-13T06:55:56.225Z,3.50
2023-05-13T06:58:25.474Z,3.22
2023-05-13T07:00:54.176Z,3.80
2023-05-13T07:03:23.163Z,3.15
2023-05-13T07:05:51.857Z,3.47
2023-05-13T07:08:20.543Z,2.60
2023-05-13T07:10:49.577Z,2.78
2023-05-13T07:13:21.013Z,3.05
2023-05-13T07:15:50.177Z,2.50
2023-05-13T07:18:18.447Z,3.30
2023-05-13T07:20:46.720Z,4.10
2023-05-13T07:23:16.217Z,5.00
2023-05-13T07:25:44.819Z,5.50
2023-05-13T07:28:14.056Z,5.72
2023-05-13T07:30:42.636Z,3.92
2023-05-13T07:33:11.676Z,4.45
2023-05-13T07:35:40.451Z,3.90
2023-05-13T07:38:11.232Z,3.42
2023-05-13T07:40:39.763Z,3.60
2023-05-13T07:43:09.816Z,3.50
2023-05-13T07:45:39.361Z,3.67
2023-05-13T07:48:10.255Z,3.30
2023-05-13T07:50:38.566Z,3.80
2023-05-13T07:53:06.795Z,4.05
2023-05-13T07:55:35.772Z,2.83
2023-05-13T07:58:04.057Z,3.83
2023-05-13T08:00:32.502Z,3.60
2023-05-13T08:03:02.139Z,3.47
2023-05-13T08:05:30.510Z,3.60
2023-05-13T08:07:59.483Z,3.15
2023-05-13T08:10:28.481Z,2.75
2023-05-13T08:12:57.848Z,2.80
2023-05-13T08:15:27.460Z,2.60
2023-05-13T08:17:55.898Z,2.58
2023-05-13T08:20:30.289Z,3.45
2023-05-13T08:22:58.814Z,2.80
2023-05-13T08:25:27.878Z,3.05
2023-05-13T08:27:56.707Z,3.05
2023-05-13T08:30:25.804Z,3.22
2023-05-13T08:32:54.045Z,4.13
2023-05-13T08:35:22.322Z,2.88
2023-05-13T08:37:51.681Z,4.40
2023-05-13T08:40:20.349Z,4.18
2023-05-13T08:42:51.155Z,3.70
2023-05-13T08:45:22.888Z,3.05
2023-05-13T08:47:56.877Z,4.00
2023-05-13T08:50:26.953Z,3.28
2023-05-13T08:52:58.065Z,2.80
2023-05-13T08:55:27.890Z,2.65
2023-05-13T08:57:56.601Z,3.25
2023-05-13T09:00:25.995Z,2.10
2023-05-13T09:02:54.715Z,2.30
2023-05-13T09:05:25.335Z,3.20
2023-05-13T09:07:55.169Z,2.72
2023-05-13T09:10:23.328Z,2.55
2023-05-13T09:12:56.103Z,2.15
2023-05-13T09:15:27.078Z,1.95
2023-05-13T09:18:04.001Z,2.40
2023-05-13T09:20:33.666Z,2.75
2023-05-13T09:23:04.864Z,2.10
2023-05-13T09:25:34.669Z,2.60
2023-05-13T09:28:06.010Z,2.70
2023-05-13T09:30:40.425Z,3.03
2023-05-13T09:33:22.820Z,2.63
2023-05-13T09:35:54.926Z,2.67
2023-05-13T09:38:29.425Z,2.00
2023-05-13T09:41:00.169Z,2.10
2023-05-13T09:43:33.484Z,1.98
2023-05-13T09:46:05.086Z,1.88
2023-05-13T09:48:34.944Z,2.45
2023-05-13T09:51:03.666Z,2.00
2023-05-13T09:53:32.383Z,2.17
2023-05-13T09:56:01.994Z,2.65
2023-05-13T09:58:31.292Z,2.45
2023-05-13T10:01:00.783Z,2.55
2023-05-13T10:03:29.755Z,3.67
2023-05-13T10:06:01.413Z,3.40
2023-05-13T10:08:33.005Z,3.10
2023-05-13T10:11:01.653Z,2.85
2023-05-13T10:13:32.455Z,3.22
2023-05-13T10:16:00.803Z,2.60
2023-05-13T10:18:29.928Z,2.45
2023-05-13T10:20:58.996Z,2.50
2023-05-13T10:23:28.700Z,2.70
2023-05-13T10:26:00.107Z,2.60
2023-05-13T10:28:29.464Z,2.30
2023-05-13T10:30:58.199Z,3.58
2023-05-13T10:33:28.065Z,2.40
2023-05-13T10:36:26.810Z,2.03
2023-05-13T10:39:25.492Z,2.80
2023-05-13T10:42:18.694Z,2.33
2023-05-13T10:44:47.741Z,2.75
2023-05-13T10:47:17.492Z,2.90
2023-05-13T10:49:55.044Z,2.97
2023-05-13T10:52:24.064Z,3.95
2023-05-13T10:55:03.006Z,3.95
2023-05-13T10:57:38.132Z,4.28
2023-05-13T11:00:31.766Z,4.07
2023-05-13T11:05:47.428Z,4.13
2023-05-13T11:08:41.230Z,5.50
2023-05-13T11:11:21.533Z,5.75
2023-05-13T11:14:00.256Z,7.72
2023-05-13T11:16:29.425Z,12.27
2023-05-13T11:18:59.059Z,11.85
2023-05-13T11:21:39.882Z,4.63
2023-05-13T11:24:08.564Z,5.40
2023-05-13T11:26:54.427Z,3.83
2023-05-13T11:29:33.630Z,3.55
2023-05-13T11:32:04.911Z,3.80
2023-05-13T11:34:35.121Z,3.55
2023-05-13T11:37:04.557Z,4.93
2023-05-13T11:39:34.375Z,5.55
2023-05-13T11:42:06.974Z,3.85
2023-05-13T11:44:36.228Z,4.25
2023-05-13T11:47:06.345Z,2.85
2023-05-13T11:49:41.961Z,3.40
2023-05-13T11:52:12.274Z,2.65
2023-05-13T11:54:53.814Z,3.20
2023-05-13T11:57:33.018Z,2.88
2023-05-13T12:00:05.630Z,2.80
2023-05-13T12:02:39.685Z,2.80
2023-05-13T12:05:11.635Z,2.55
2023-05-13T12:07:40.367Z,2.70
2023-05-13T12:10:08.810Z,2.83
2023-05-13T12:12:43.334Z,3.20
2023-05-13T12:15:23.277Z,3.95
2023-05-13T12:17:52.580Z,3.78
2023-05-13T12:20:23.481Z,5.53
2023-05-13T12:22:53.614Z,3.50
2023-05-13T12:25:44.077Z,5.05
2023-05-13T12:28:17.294Z,5.13
2023-05-13T12:31:01.438Z,5.43
2023-05-13T12:33:42.002Z,5.95
2023-05-13T12:36:18.071Z,6.70
2023-05-13T12:38:59.545Z,5.25
2023-05-13T12:41:43.865Z,4.75
2023-05-13T12:44:15.752Z,5.18
2023-05-13T12:46:55.129Z,3.83
2023-05-13T12:49:23.604Z,4.82
2023-05-13T12:51:52.384Z,4.18
2023-05-13T12:54:21.731Z,3.25
2023-05-13T12:56:51.031Z,3.40
2023-05-13T12:59:19.594Z,3.20
2023-05-13T13:01:49.955Z,3.83
2023-05-13T13:04:19.177Z,3.90
2023-05-13T13:06:47.847Z,3.63
2023-05-13T13:09:16.861Z,3.85
2023-05-13T13:11:45.465Z,3.40
2023-05-13T13:14:14.316Z,3.65
2023-05-13T13:16:43.164Z,4.25
2023-05-13T13:19:12.363Z,3.53
2023-05-13T13:21:41.803Z,4.22
2023-05-13T13:24:10.500Z,4.05
2023-05-13T13:26:39.073Z,3.95
2023-05-13T13:29:07.209Z,5.35
2023-05-13T13:31:35.957Z,3.97
2023-05-13T13:34:06.070Z,4.55
2023-05-13T13:36:35.286Z,4.43
2023-05-13T13:39:03.938Z,4.85
2023-05-13T13:41:32.236Z,4.63
2023-05-13T13:44:00.895Z,6.30
2023-05-13T13:46:29.549Z,5.72
2023-05-13T13:48:58.064Z,6.28
2023-05-13T13:51:26.625Z,6.45
2023-05-13T13:53:55.306Z,7.13
2023-05-13T13:56:23.462Z,4.75
2023-05-13T13:58:51.821Z,5.10
2023-05-13T14:01:20.692Z,3.72
2023-05-13T14:03:50.874Z,4.50
2023-05-13T14:06:20.238Z,3.92
2023-05-13T14:08:51.104Z,4.35
2023-05-13T14:11:20.890Z,3.40
2023-05-13T14:13:49.247Z,3.63
2023-05-13T14:16:17.360Z,3.72
2023-05-13T14:18:46.329Z,3.15
2023-05-13T14:21:14.336Z,3.53
2023-05-13T14:23:43.426Z,3.22
2023-05-13T14:26:13.631Z,3.22
2023-05-13T14:28:42.680Z,3.30
2023-05-13T14:31:11.376Z,3.38
2023-05-13T14:33:40.589Z,3.40
2023-05-13T14:36:11.344Z,4.28
2023-05-13T14:38:40.424Z,4.35
2023-05-13T14:41:09.164Z,5.40
2023-05-13T14:43:37.320Z,5.93
2023-05-13T14:46:05.799Z,5.90
2023-05-13T14:48:34.312Z,6.70
2023-05-13T14:51:03.123Z,7.40
2023-05-13T14:53:32.428Z,7.00
2023-05-13T14:56:00.648Z,7.82
2023-05-13T14:58:29.571Z,9.18
2023-05-13T15:00:57.675Z,9.35
2023-05-13T15:03:26.387Z,9.88
2023-05-13T15:05:56.476Z,9.38
2023-05-13T15:08:25.723Z,9.50
2023-05-13T15:10:54.630Z,9.50
2023-05-13T15:13:24.842Z,9.07
2023-05-13T15:15:53.286Z,9.68
2023-05-13T15:18:22.117Z,8.13
2023-05-13T15:20:51.557Z,9.55
2023-05-13T15:23:20.840Z,9.32
2023-05-13T15:25:49.250Z,9.40
2023-05-13T15:28:17.992Z,8.93
2023-05-13T15:30:46.952Z,9.23
2023-05-13T15:33:15.427Z,8.63
2023-05-13T15:35:44.403Z,9.43
2023-05-13T15:38:12.539Z,8.40
2023-05-13T15:40:41.216Z,8.82
2023-05-13T15:43:10.055Z,7.75
2023-05-13T15:45:40.215Z,10.35
2023-05-13T15:48:09.581Z,11.43
2023-05-13T15:50:37.979Z,10.38
2023-05-13T15:53:06.856Z,11.25
2023-05-13T15:55:37.070Z,12.80
2023-05-13T15:58:07.208Z,13.68
2023-05-13T16:00:35.900Z,12.32
2023-05-13T16:03:05.457Z,10.93
2023-05-13T16:05:36.368Z,13.15
2023-05-13T16:08:05.062Z,12.15
2023-05-13T16:10:35.149Z,14.30
2023-05-13T16:13:04.123Z,13.10
2023-05-13T16:15:32.879Z,14.20
2023-05-13T16:18:01.569Z,12.30
2023-05-13T16:20:30.752Z,13.35
2023-05-13T16:22:58.788Z,13.80
2023-05-13T16:25:27.439Z,10.18
2023-05-13T16:27:56.766Z,11.05
2023-05-13T16:30:26.309Z,10.63
2023-05-13T16:32:54.970Z,10.65
2023-05-13T16:35:23.748Z,12.75
2023-05-13T16:37:52.574Z,11.55
2023-05-13T16:40:21.298Z,12.57
2023-05-13T16:42:49.790Z,12.63
2023-05-13T16:45:18.300Z,10.43
2023-05-13T16:47:46.938Z,11.25
2023-05-13T16:50:15.579Z,11.75
2023-05-13T16:52:44.407Z,13.80
2023-05-13T16:55:13.886Z,11.57
2023-05-13T16:57:42.372Z,12.52
2023-05-13T17:00:12.228Z,18.02
2023-05-13T17:02:42.948Z,19.48
2023-05-13T17:05:11.982Z,37.78
2023-05-13T17:07:40.486Z,12.60
2023-05-13T17:10:09.993Z,13.80
2023-05-13T17:12:38.391Z,13.90
2023-05-13T17:15:08.045Z,12.57
2023-05-13T17:17:36.782Z,14.02
2023-05-13T17:20:06.313Z,13.30
2023-05-13T17:22:35.001Z,11.57
2023-05-13T17:25:04.381Z,13.15
2023-05-13T17:27:32.877Z,14.65
2023-05-13T17:30:01.994Z,13.10
2023-05-13T17:32:33.688Z,12.43
2023-05-13T17:35:02.450Z,13.07
2023-05-13T17:37:33.119Z,10.10
2023-05-13T17:40:02.869Z,10.75
2023-05-13T17:42:33.742Z,12.38
2023-05-13T17:45:03.326Z,12.98
2023-05-13T17:47:34.800Z,13.82
2023-05-13T17:50:03.568Z,12.80
2023-05-13T17:52:32.553Z,15.40
2023-05-13T17:55:01.485Z,14.65
2023-05-13T17:57:32.101Z,16.52
2023-05-13T18:00:04.902Z,16.23
2023-05-13T18:02:34.395Z,20.38
2023-05-13T18:05:03.874Z,15.77
2023-05-13T18:07:33.226Z,16.02
2023-05-13T18:10:02.586Z,12.82
2023-05-13T18:12:32.754Z,13.48
2023-05-13T18:15:02.157Z,11.23
2023-05-13T18:17:36.260Z,11.05
2023-05-13T18:20:05.696Z,9.88
2023-05-13T18:22:35.062Z,8.50
2023-05-13T18:25:04.144Z,8.75
2023-05-13T18:27:33.748Z,8.63
2023-05-13T18:30:02.371Z,8.32
2023-05-13T18:32:34.201Z,9.32
2023-05-13T18:35:03.046Z,9.60
2023-05-13T18:37:32.353Z,10.13
2023-05-13T18:40:02.353Z,7.45
2023-05-13T18:42:33.788Z,9.20
2023-05-13T18:45:02.532Z,9.13
2023-05-13T18:47:33.657Z,8.07
2023-05-13T18:50:02.954Z,8.73
2023-05-13T18:52:32.419Z,7.00
2023-05-13T18:55:05.194Z,8.10
2023-05-13T18:57:33.881Z,7.20
2023-05-13T19:00:02.111Z,5.50
2023-05-13T19:02:35.437Z,6.10
2023-05-13T19:05:04.812Z,6.85
2023-05-13T19:07:33.704Z,7.75
2023-05-13T19:10:02.436Z,8.55
2023-05-13T19:12:33.272Z,11.52
2023-05-13T19:15:01.618Z,13.85
2023-05-13T19:17:31.390Z,9.88
2023-05-13T19:20:00.514Z,11.02
2023-05-13T19:22:28.880Z,9.38
2023-05-13T19:24:57.427Z,9.50
2023-05-13T19:27:27.142Z,10.55
2023-05-13T19:29:55.703Z,11.00
2023-05-13T19:32:24.252Z,9.82
2023-05-13T19:34:52.917Z,10.45
2023-05-13T19:37:21.144Z,6.63
2023-05-13T19:39:50.294Z,8.13
2023-05-13T19:42:19.341Z,7.20
2023-05-13T19:44:48.374Z,8.05
2023-05-13T19:47:16.807Z,7.35
2023-05-13T19:49:45.652Z,7.65
2023-05-13T19:52:14.564Z,6.32
2023-05-13T19:54:43.575Z,4.93
2023-05-13T19:57:12.353Z,5.47
2023-05-13T19:59:41.910Z,7.15
2023-05-13T20:02:10.655Z,8.15
2023-05-13T20:04:39.260Z,7.03
2023-05-13T20:07:09.441Z,4.13
2023-05-13T20:09:38.459Z,5.60
2023-05-13T20:12:07.908Z,4.25
2023-05-13T20:14:44.597Z,4.15
2023-05-13T20:17:18.308Z,4.05
2023-05-13T20:19:48.772Z,4.43
2023-05-13T20:22:19.304Z,3.75
2023-05-13T20:24:49.079Z,4.00
2023-05-13T20:27:18.894Z,3.35
2023-05-13T20:29:49.655Z,3.45
2023-05-13T20:32:24.907Z,4.43
2023-05-13T20:34:54.696Z,4.25
2023-05-13T20:37:24.148Z,3.33
2023-05-13T20:39:53.676Z,3.95
2023-05-13T20:42:22.926Z,4.50
2023-05-13T20:44:52.028Z,3.80
2023-05-13T20:47:21.063Z,3.95
2023-05-13T20:49:49.387Z,3.70
2023-05-13T20:52:18.096Z,4.10
2023-05-13T20:54:46.447Z,5.60
2023-05-13T20:57:15.230Z,8.38
2023-05-13T20:59:43.370Z,9.25
2023-05-13T21:02:11.763Z,8.95
2023-05-13T21:04:40.217Z,8.88
2023-05-13T21:07:08.968Z,10.05
2023-05-13T21:09:37.380Z,10.98
2023-05-13T21:12:06.428Z,10.77
2023-05-13T21:14:35.009Z,9.05
2023-05-13T21:17:04.309Z,9.98
2023-05-13T21:19:32.962Z,9.40
2023-05-13T21:22:05.248Z,10.18
2023-05-13T21:24:33.600Z,12.07
2023-05-13T21:27:02.540Z,8.27
2023-05-13T21:29:31.555Z,7.82
2023-05-13T21:31:59.637Z,6.53
2023-05-13T21:34:28.070Z,6.18
2023-05-13T21:36:57.124Z,6.90
2023-05-13T21:39:26.162Z,5.60
2023-05-13T21:41:55.069Z,4.88
2023-05-13T21:44:24.891Z,6.35
2023-05-13T21:46:53.026Z,6.07
2023-05-13T21:49:21.634Z,5.03
2023-05-13T21:51:50.402Z,5.90
2023-05-13T21:54:19.864Z,3.92
2023-05-13T21:56:48.639Z,4.18
2023-05-13T21:59:17.291Z,4.32
2023-05-13T22:01:45.653Z,4.13
2023-05-13T22:04:14.745Z,3.78
2023-05-13T22:06:43.063Z,3.67
2023-05-13T22:09:11.516Z,3.42
2023-05-13T22:11:40.762Z,3.90
2023-05-13T22:14:08.807Z,3.90
2023-05-13T22:16:37.261Z,3.85
2023-05-13T22:19:06.257Z,3.65
2023-05-13T22:21:36.075Z,3.53
2023-05-13T22:24:06.494Z,3.60
2023-05-13T22:26:36.834Z,4.28
2023-05-13T22:29:05.011Z,5.45
2023-05-13T22:31:34.045Z,5.22
2023-05-13T22:34:03.518Z,5.55
2023-05-13T22:36:31.562Z,7.10
2023-05-13T22:39:00.125Z,5.60
2023-05-13T22:41:28.396Z,5.65
2023-05-13T22:43:56.381Z,6.05
2023-05-13T22:46:24.609Z,5.30
2023-05-13T22:48:53.575Z,4.85
2023-05-13T22:51:47.969Z,4.47
2023-05-13T22:54:16.581Z,4.57
2023-05-13T22:56:45.154Z,4.38
2023-05-13T22:59:14.493Z,4.13
2023-05-13T23:01:42.693Z,4.10
2023-05-13T23:04:12.006Z,4.25
2023-05-13T23:06:40.582Z,3.80
2023-05-13T23:09:10.560Z,3.70
2023-05-13T23:11:38.863Z,4.50
2023-05-13T23:14:08.953Z,5.03
2023-05-13T23:16:37.233Z,4.68
2023-05-13T23:19:06.220Z,4.65
2023-05-13T23:21:36.695Z,6.85
2023-05-13T23:24:04.905Z,7.53
2023-05-13T23:26:33.703Z,8.32
2023-05-13T23:29:02.474Z,7.78
2023-05-13T23:31:30.766Z,8.75
2023-05-13T23:33:59.659Z,9.60
2023-05-13T23:36:28.151Z,9.60
2023-05-13T23:38:57.225Z,10.40
2023-05-13T23:41:26.462Z,10.55
2023-05-13T23:43:55.229Z,9.77
2023-05-13T23:46:24.205Z,9.20
2023-05-13T23:48:53.385Z,6.65
2023-05-13T23:51:21.682Z,5.53
2023-05-13T23:53:50.360Z,5.13
2023-05-13T23:56:19.051Z,5.18
2023-05-13T23:58:48.093Z,4.60
